sensor_id;sensor_type;location;lat;lon;timestamp;P1;durP1;ratioP1;P2;durP2;ratioP2
5876;SDS011;2964;42.144;24.730;2022-07-06T00:00:00;5.10;;;4.70;;
5876;SDS011;2964;42.144;24.730;2022-07-06T00:02:27;8.55;;;5.20;;
5876;SDS011;2964;42.144;24.730;2022-07-06T00:04:54;6.63;;;5.13;;
5876;SDS011;2964;42.144;24.730;2022-07-06T00:07:21;7.53;;;4.85;;
5876;SDS011;2964;42.144;24.730;2022-07-06T00:09:47;6.53;;;5.78;;
5876;SDS011;2964;42.144;24.730;2022-07-06T00:12:15;8.23;;;6.30;;
5876;SDS011;2964;42.144;24.730;2022-07-06T00:14:42;9.93;;;6.40;;
5876;SDS011;2964;42.144;24.730;2022-07-06T00:17:09;7.63;;;7.05;;
5876;SDS011;2964;42.144;24.730;2022-07-06T00:19:36;8.25;;;6.55;;
5876;SDS011;2964;42.144;24.730;2022-07-06T00:22:02;9.73;;;7.72;;
5876;SDS011;2964;42.144;24.730;2022-07-06T00:24:29;14.25;;;7.68;;
5876;SDS011;2964;42.144;24.730;2022-07-06T00:26:56;8.17;;;7.50;;
5876;SDS011;2964;42.144;24.730;2022-07-06T00:29:24;8.37;;;7.33;;
5876;SDS011;2964;42.144;24.730;2022-07-06T00:31:51;9.57;;;6.97;;
5876;SDS011;2964;42.144;24.730;2022-07-06T00:34:17;7.27;;;6.77;;
5876;SDS011;2964;42.144;24.730;2022-07-06T00:36:44;11.13;;;7.67;;
5876;SDS011;2964;42.144;24.730;2022-07-06T00:39:11;9.47;;;7.93;;
5876;SDS011;2964;42.144;24.730;2022-07-06T00:41:37;8.57;;;7.83;;
5876;SDS011;2964;42.144;24.730;2022-07-06T00:44:07;9.00;;;7.57;;
5876;SDS011;2964;42.144;24.730;2022-07-06T00:46:36;8.97;;;8.27;;
5876;SDS011;2964;42.144;24.730;2022-07-06T00:49:03;8.27;;;7.33;;
5876;SDS011;2964;42.144;24.730;2022-07-06T00:51:30;10.70;;;7.87;;
5876;SDS011;2964;42.144;24.730;2022-07-06T00:54:02;9.30;;;7.50;;
5876;SDS011;2964;42.144;24.730;2022-07-06T00:56:30;7.60;;;7.00;;
5876;SDS011;2964;42.144;24.730;2022-07-06T00:58:58;13.93;;;7.67;;
5876;SDS011;2964;42.144;24.730;2022-07-06T01:01:26;12.93;;;7.67;;
5876;SDS011;2964;42.144;24.730;2022-07-06T01:03:54;9.00;;;7.03;;
5876;SDS011;2964;42.144;24.730;2022-07-06T01:06:21;12.57;;;7.40;;
5876;SDS011;2964;42.144;24.730;2022-07-06T01:08:48;12.10;;;6.93;;
5876;SDS011;2964;42.144;24.730;2022-07-06T01:11:15;7.90;;;7.03;;
5876;SDS011;2964;42.144;24.730;2022-07-06T01:13:44;8.20;;;7.30;;
5876;SDS011;2964;42.144;24.730;2022-07-06T01:16:12;10.93;;;6.90;;
5876;SDS011;2964;42.144;24.730;2022-07-06T01:18:38;6.90;;;6.27;;
5876;SDS011;2964;42.144;24.730;2022-07-06T01:21:09;8.03;;;7.20;;
5876;SDS011;2964;42.144;24.730;2022-07-06T01:23:40;10.10;;;7.07;;
5876;SDS011;2964;42.144;24.730;2022-07-06T01:26:12;7.50;;;6.53;;
5876;SDS011;2964;42.144;24.730;2022-07-06T01:28:40;7.30;;;6.60;;
5876;SDS011;2964;42.144;24.730;2022-07-06T01:31:13;7.47;;;6.73;;
5876;SDS011;2964;42.144;24.730;2022-07-06T01:33:41;7.63;;;6.23;;
5876;SDS011;2964;42.144;24.730;2022-07-06T01:36:10;7.73;;;7.03;;
5876;SDS011;2964;42.144;24.730;2022-07-06T01:38:44;6.60;;;5.63;;
5876;SDS011;2964;42.144;24.730;2022-07-06T01:41:11;8.10;;;6.77;;
5876;SDS011;2964;42.144;24.730;2022-07-06T01:43:38;8.30;;;6.23;;
5876;SDS011;2964;42.144;24.730;2022-07-06T01:46:05;7.23;;;6.77;;
5876;SDS011;2964;42.144;24.730;2022-07-06T01:48:32;11.43;;;6.70;;
5876;SDS011;2964;42.144;24.730;2022-07-06T01:50:59;8.63;;;5.80;;
5876;SDS011;2964;42.144;24.730;2022-07-06T01:53:27;6.40;;;5.73;;
5876;SDS011;2964;42.144;24.730;2022-07-06T01:55:54;7.73;;;5.93;;
5876;SDS011;2964;42.144;24.730;2022-07-06T01:58:21;10.53;;;6.50;;
5876;SDS011;2964;42.144;24.730;2022-07-06T02:00:48;8.23;;;6.57;;
5876;SDS011;2964;42.144;24.730;2022-07-06T02:03:14;11.80;;;6.20;;
5876;SDS011;2964;42.144;24.730;2022-07-06T02:05:41;6.87;;;6.37;;
5876;SDS011;2964;42.144;24.730;2022-07-06T02:08:08;15.43;;;6.60;;
5876;SDS011;2964;42.144;24.730;2022-07-06T02:10:36;6.70;;;6.03;;
5876;SDS011;2964;42.144;24.730;2022-07-06T02:13:02;6.60;;;5.90;;
5876;SDS011;2964;42.144;24.730;2022-07-06T02:15:29;9.03;;;6.03;;
5876;SDS011;2964;42.144;24.730;2022-07-06T02:17:56;11.03;;;6.80;;
5876;SDS011;2964;42.144;24.730;2022-07-06T02:20:23;6.73;;;6.10;;
5876;SDS011;2964;42.144;24.730;2022-07-06T02:22:49;7.13;;;6.10;;
5876;SDS011;2964;42.144;24.730;2022-07-06T02:25:16;6.90;;;6.30;;
5876;SDS011;2964;42.144;24.730;2022-07-06T02:27:44;6.17;;;5.57;;
5876;SDS011;2964;42.144;24.730;2022-07-06T02:30:11;9.03;;;6.97;;
5876;SDS011;2964;42.144;24.730;2022-07-06T02:32:38;6.60;;;6.00;;
5876;SDS011;2964;42.144;24.730;2022-07-06T02:35:05;7.23;;;5.90;;
5876;SDS011;2964;42.144;24.730;2022-07-06T02:37:32;8.57;;;6.03;;
5876;SDS011;2964;42.144;24.730;2022-07-06T02:39:58;8.00;;;5.90;;
5876;SDS011;2964;42.144;24.730;2022-07-06T02:42:25;9.95;;;6.18;;
5876;SDS011;2964;42.144;24.730;2022-07-06T02:44:53;6.43;;;5.88;;
5876;SDS011;2964;42.144;24.730;2022-07-06T02:47:20;6.70;;;6.20;;
5876;SDS011;2964;42.144;24.730;2022-07-06T02:49:47;6.38;;;5.90;;
5876;SDS011;2964;42.144;24.730;2022-07-06T02:52:13;6.50;;;6.03;;
5876;SDS011;2964;42.144;24.730;2022-07-06T02:54:40;9.43;;;6.40;;
5876;SDS011;2964;42.144;24.730;2022-07-06T02:57:07;6.80;;;6.28;;
5876;SDS011;2964;42.144;24.730;2022-07-06T02:59:34;10.90;;;5.95;;
5876;SDS011;2964;42.144;24.730;2022-07-06T03:02:03;7.20;;;6.43;;
5876;SDS011;2964;42.144;24.730;2022-07-06T03:04:30;7.87;;;7.07;;
5876;SDS011;2964;42.144;24.730;2022-07-06T03:06:57;8.33;;;6.77;;
5876;SDS011;2964;42.144;24.730;2022-07-06T03:09:23;9.83;;;7.83;;
5876;SDS011;2964;42.144;24.730;2022-07-06T03:11:50;11.73;;;7.43;;
5876;SDS011;2964;42.144;24.730;2022-07-06T03:14:17;11.17;;;8.53;;
5876;SDS011;2964;42.144;24.730;2022-07-06T03:16:44;9.80;;;8.87;;
5876;SDS011;2964;42.144;24.730;2022-07-06T03:19:12;10.00;;;7.40;;
5876;SDS011;2964;42.144;24.730;2022-07-06T03:21:39;13.60;;;8.37;;
5876;SDS011;2964;42.144;24.730;2022-07-06T03:24:05;9.67;;;8.03;;
5876;SDS011;2964;42.144;24.730;2022-07-06T03:26:32;8.67;;;7.80;;
5876;SDS011;2964;42.144;24.730;2022-07-06T03:28:59;11.93;;;8.40;;
5876;SDS011;2964;42.144;24.730;2022-07-06T03:31:26;11.43;;;7.23;;
5876;SDS011;2964;42.144;24.730;2022-07-06T03:33:52;11.70;;;7.57;;
5876;SDS011;2964;42.144;24.730;2022-07-06T03:36:21;26.70;;;9.87;;
5876;SDS011;2964;42.144;24.730;2022-07-06T03:38:47;9.47;;;8.13;;
5876;SDS011;2964;42.144;24.730;2022-07-06T03:41:14;8.63;;;7.70;;
5876;SDS011;2964;42.144;24.730;2022-07-06T03:43:41;12.60;;;7.00;;
5876;SDS011;2964;42.144;24.730;2022-07-06T03:46:08;15.40;;;8.23;;
5876;SDS011;2964;42.144;24.730;2022-07-06T03:48:35;12.80;;;6.80;;
5876;SDS011;2964;42.144;24.730;2022-07-06T03:51:01;20.15;;;8.02;;
5876;SDS011;2964;42.144;24.730;2022-07-06T03:53:30;12.98;;;7.80;;
5876;SDS011;2964;42.144;24.730;2022-07-06T03:55:57;17.67;;;7.80;;
5876;SDS011;2964;42.144;24.730;2022-07-06T03:58:47;11.70;;;7.72;;
5876;SDS011;2964;42.144;24.730;2022-07-06T04:01:13;12.18;;;7.85;;
5876;SDS011;2964;42.144;24.730;2022-07-06T04:03:40;9.93;;;7.50;;
5876;SDS011;2964;42.144;24.730;2022-07-06T04:06:07;8.32;;;7.50;;
5876;SDS011;2964;42.144;24.730;2022-07-06T04:08:35;9.83;;;8.10;;
5876;SDS011;2964;42.144;24.730;2022-07-06T04:11:02;9.00;;;8.20;;
5876;SDS011;2964;42.144;24.730;2022-07-06T04:13:29;8.50;;;7.80;;
5876;SDS011;2964;42.144;24.730;2022-07-06T04:15:56;14.57;;;8.83;;
5876;SDS011;2964;42.144;24.730;2022-07-06T04:18:22;13.27;;;9.03;;
5876;SDS011;2964;42.144;24.730;2022-07-06T04:20:49;10.80;;;9.13;;
5876;SDS011;2964;42.144;24.730;2022-07-06T04:23:16;13.83;;;8.93;;
5876;SDS011;2964;42.144;24.730;2022-07-06T04:25:44;14.07;;;9.35;;
5876;SDS011;2964;42.144;24.730;2022-07-06T04:28:11;10.88;;;8.80;;
5876;SDS011;2964;42.144;24.730;2022-07-06T04:30:37;9.63;;;8.82;;
5876;SDS011;2964;42.144;24.730;2022-07-06T04:33:04;9.68;;;8.65;;
5876;SDS011;2964;42.144;24.730;2022-07-06T04:35:31;10.35;;;9.35;;
5876;SDS011;2964;42.144;24.730;2022-07-06T04:37:57;10.38;;;9.48;;
5876;SDS011;2964;42.144;24.730;2022-07-06T04:40:24;10.25;;;9.45;;
5876;SDS011;2964;42.144;24.730;2022-07-06T04:42:52;9.07;;;8.48;;
5876;SDS011;2964;42.144;24.730;2022-07-06T04:45:19;22.90;;;10.10;;
5876;SDS011;2964;42.144;24.730;2022-07-06T04:47:46;17.23;;;9.20;;
5876;SDS011;2964;42.144;24.730;2022-07-06T04:50:12;11.85;;;9.60;;
5876;SDS011;2964;42.144;24.730;2022-07-06T04:52:39;11.65;;;8.98;;
5876;SDS011;2964;42.144;24.730;2022-07-06T04:55:06;12.68;;;11.30;;
5876;SDS011;2964;42.144;24.730;2022-07-06T04:57:34;19.90;;;15.63;;
5876;SDS011;2964;42.144;24.730;2022-07-06T05:00:02;11.45;;;9.10;;
5876;SDS011;2964;42.144;24.730;2022-07-06T05:02:30;11.63;;;10.55;;
5876;SDS011;2964;42.144;24.730;2022-07-06T05:04:57;9.45;;;8.48;;
5876;SDS011;2964;42.144;24.730;2022-07-06T05:07:24;10.70;;;9.68;;
5876;SDS011;2964;42.144;24.730;2022-07-06T05:09:53;14.68;;;11.63;;
5876;SDS011;2964;42.144;24.730;2022-07-06T05:12:20;14.40;;;10.98;;
5876;SDS011;2964;42.144;24.730;2022-07-06T05:14:46;13.30;;;12.05;;
5876;SDS011;2964;42.144;24.730;2022-07-06T05:17:14;14.18;;;12.68;;
5876;SDS011;2964;42.144;24.730;2022-07-06T05:19:41;11.55;;;10.13;;
5876;SDS011;2964;42.144;24.730;2022-07-06T05:22:08;10.65;;;9.82;;
5876;SDS011;2964;42.144;24.730;2022-07-06T05:24:34;11.30;;;10.45;;
5876;SDS011;2964;42.144;24.730;2022-07-06T05:27:01;15.10;;;10.95;;
5876;SDS011;2964;42.144;24.730;2022-07-06T05:29:28;11.63;;;10.60;;
5876;SDS011;2964;42.144;24.730;2022-07-06T05:31:55;13.63;;;9.88;;
5876;SDS011;2964;42.144;24.730;2022-07-06T05:34:23;13.40;;;9.82;;
5876;SDS011;2964;42.144;24.730;2022-07-06T05:36:50;11.30;;;10.30;;
5876;SDS011;2964;42.144;24.730;2022-07-06T05:39:16;11.68;;;10.07;;
5876;SDS011;2964;42.144;24.730;2022-07-06T05:41:44;9.07;;;8.40;;
5876;SDS011;2964;42.144;24.730;2022-07-06T05:44:11;10.98;;;9.70;;
5876;SDS011;2964;42.144;24.730;2022-07-06T05:46:38;9.73;;;8.73;;
5876;SDS011;2964;42.144;24.730;2022-07-06T05:49:05;12.38;;;8.57;;
5876;SDS011;2964;42.144;24.730;2022-07-06T05:51:50;9.85;;;8.90;;
5876;SDS011;2964;42.144;24.730;2022-07-06T05:54:17;9.82;;;8.07;;
5876;SDS011;2964;42.144;24.730;2022-07-06T05:56:44;8.93;;;8.10;;
5876;SDS011;2964;42.144;24.730;2022-07-06T05:59:10;10.13;;;8.27;;
5876;SDS011;2964;42.144;24.730;2022-07-06T06:01:37;9.48;;;8.52;;
5876;SDS011;2964;42.144;24.730;2022-07-06T06:04:04;10.50;;;9.68;;
5876;SDS011;2964;42.144;24.730;2022-07-06T06:06:31;9.85;;;8.88;;
5876;SDS011;2964;42.144;24.730;2022-07-06T06:08:59;8.75;;;8.20;;
5876;SDS011;2964;42.144;24.730;2022-07-06T06:11:25;11.50;;;8.82;;
5876;SDS011;2964;42.144;24.730;2022-07-06T06:13:52;10.68;;;9.57;;
5876;SDS011;2964;42.144;24.730;2022-07-06T06:16:19;11.00;;;9.98;;
5876;SDS011;2964;42.144;24.730;2022-07-06T06:18:45;9.60;;;8.65;;
5876;SDS011;2964;42.144;24.730;2022-07-06T06:21:12;9.93;;;8.50;;
5876;SDS011;2964;42.144;24.730;2022-07-06T06:23:39;9.15;;;8.48;;
5876;SDS011;2964;42.144;24.730;2022-07-06T06:26:07;13.20;;;8.32;;
5876;SDS011;2964;42.144;24.730;2022-07-06T06:28:34;11.65;;;8.90;;
5876;SDS011;2964;42.144;24.730;2022-07-06T06:31:01;17.83;;;9.27;;
5876;SDS011;2964;42.144;24.730;2022-07-06T06:33:28;20.55;;;10.20;;
5876;SDS011;2964;42.144;24.730;2022-07-06T06:35:55;9.88;;;9.00;;
5876;SDS011;2964;42.144;24.730;2022-07-06T06:38:22;10.45;;;9.85;;
5876;SDS011;2964;42.144;24.730;2022-07-06T06:40:51;9.32;;;8.73;;
5876;SDS011;2964;42.144;24.730;2022-07-06T06:43:19;9.80;;;8.90;;
5876;SDS011;2964;42.144;24.730;2022-07-06T06:45:45;10.40;;;9.38;;
5876;SDS011;2964;42.144;24.730;2022-07-06T06:48:12;11.68;;;9.88;;
5876;SDS011;2964;42.144;24.730;2022-07-06T06:50:39;11.77;;;10.57;;
5876;SDS011;2964;42.144;24.730;2022-07-06T06:53:06;10.43;;;9.70;;
5876;SDS011;2964;42.144;24.730;2022-07-06T06:55:32;10.65;;;9.75;;
5876;SDS011;2964;42.144;24.730;2022-07-06T06:57:59;12.05;;;10.23;;
5876;SDS011;2964;42.144;24.730;2022-07-06T07:00:27;11.73;;;10.80;;
5876;SDS011;2964;42.144;24.730;2022-07-06T07:02:54;10.35;;;8.98;;
5876;SDS011;2964;42.144;24.730;2022-07-06T07:05:20;14.35;;;11.38;;
5876;SDS011;2964;42.144;24.730;2022-07-06T07:07:47;11.93;;;11.05;;
5876;SDS011;2964;42.144;24.730;2022-07-06T07:10:14;12.55;;;11.40;;
5876;SDS011;2964;42.144;24.730;2022-07-06T07:12:44;12.68;;;11.82;;
5876;SDS011;2964;42.144;24.730;2022-07-06T07:15:11;13.52;;;12.15;;
5876;SDS011;2964;42.144;24.730;2022-07-06T07:17:40;13.70;;;12.48;;
5876;SDS011;2964;42.144;24.730;2022-07-06T07:20:07;13.13;;;11.88;;
5876;SDS011;2964;42.144;24.730;2022-07-06T07:22:35;15.05;;;11.63;;
5876;SDS011;2964;42.144;24.730;2022-07-06T07:25:01;11.13;;;10.23;;
5876;SDS011;2964;42.144;24.730;2022-07-06T07:27:29;12.30;;;11.30;;
5876;SDS011;2964;42.144;24.730;2022-07-06T07:29:55;13.82;;;12.43;;
5876;SDS011;2964;42.144;24.730;2022-07-06T07:32:22;12.32;;;11.50;;
5876;SDS011;2964;42.144;24.730;2022-07-06T07:34:50;12.00;;;10.15;;
5876;SDS011;2964;42.144;24.730;2022-07-06T07:37:17;11.52;;;10.55;;
5876;SDS011;2964;42.144;24.730;2022-07-06T07:39:44;12.35;;;11.10;;
5876;SDS011;2964;42.144;24.730;2022-07-06T07:42:10;14.27;;;10.80;;
5876;SDS011;2964;42.144;24.730;2022-07-06T07:44:37;15.13;;;11.38;;
5876;SDS011;2964;42.144;24.730;2022-07-06T07:47:05;11.95;;;11.00;;
5876;SDS011;2964;42.144;24.730;2022-07-06T07:49:32;12.45;;;11.27;;
5876;SDS011;2964;42.144;24.730;2022-07-06T07:52:00;13.52;;;12.25;;
5876;SDS011;2964;42.144;24.730;2022-07-06T07:54:27;13.50;;;12.20;;
5876;SDS011;2964;42.144;24.730;2022-07-06T07:56:54;12.13;;;10.95;;
5876;SDS011;2964;42.144;24.730;2022-07-06T07:59:20;14.85;;;12.30;;
5876;SDS011;2964;42.144;24.730;2022-07-06T08:01:47;12.13;;;10.90;;
5876;SDS011;2964;42.144;24.730;2022-07-06T08:04:14;12.63;;;11.57;;
5876;SDS011;2964;42.144;24.730;2022-07-06T08:06:41;14.00;;;11.98;;
5876;SDS011;2964;42.144;24.730;2022-07-06T08:09:09;15.05;;;12.48;;
5876;SDS011;2964;42.144;24.730;2022-07-06T08:11:36;13.98;;;12.55;;
5876;SDS011;2964;42.144;24.730;2022-07-06T08:14:03;12.80;;;11.55;;
5876;SDS011;2964;42.144;24.730;2022-07-06T08:16:30;12.73;;;11.85;;
5876;SDS011;2964;42.144;24.730;2022-07-06T08:18:57;14.57;;;12.63;;
5876;SDS011;2964;42.144;24.730;2022-07-06T08:21:24;14.15;;;12.88;;
5876;SDS011;2964;42.144;24.730;2022-07-06T08:23:51;13.60;;;12.32;;
5876;SDS011;2964;42.144;24.730;2022-07-06T08:26:19;13.65;;;12.25;;
5876;SDS011;2964;42.144;24.730;2022-07-06T08:28:46;14.10;;;13.10;;
5876;SDS011;2964;42.144;24.730;2022-07-06T08:31:13;14.20;;;13.00;;
5876;SDS011;2964;42.144;24.730;2022-07-06T08:33:40;22.75;;;12.45;;
5876;SDS011;2964;42.144;24.730;2022-07-06T08:36:06;12.70;;;11.55;;
5876;SDS011;2964;42.144;24.730;2022-07-06T08:38:33;13.57;;;12.30;;
5876;SDS011;2964;42.144;24.730;2022-07-06T08:41:00;12.50;;;11.35;;
5876;SDS011;2964;42.144;24.730;2022-07-06T08:43:28;12.57;;;11.77;;
5876;SDS011;2964;42.144;24.730;2022-07-06T08:45:54;13.00;;;11.77;;
5876;SDS011;2964;42.144;24.730;2022-07-06T08:48:22;14.38;;;12.63;;
5876;SDS011;2964;42.144;24.730;2022-07-06T08:50:50;13.23;;;11.68;;
5876;SDS011;2964;42.144;24.730;2022-07-06T08:53:18;13.85;;;12.57;;
5876;SDS011;2964;42.144;24.730;2022-07-06T08:55:45;15.07;;;13.68;;
5876;SDS011;2964;42.144;24.730;2022-07-06T08:58:12;12.30;;;11.48;;
5876;SDS011;2964;42.144;24.730;2022-07-06T09:00:41;13.85;;;12.35;;
5876;SDS011;2964;42.144;24.730;2022-07-06T09:03:10;14.88;;;13.38;;
5876;SDS011;2964;42.144;24.730;2022-07-06T09:05:39;30.70;;;27.73;;
5876;SDS011;2964;42.144;24.730;2022-07-06T09:08:06;14.65;;;13.52;;
5876;SDS011;2964;42.144;24.730;2022-07-06T09:10:33;16.58;;;14.82;;
5876;SDS011;2964;42.144;24.730;2022-07-06T09:13:03;15.30;;;13.73;;
5876;SDS011;2964;42.144;24.730;2022-07-06T09:15:30;15.00;;;14.00;;
5876;SDS011;2964;42.144;24.730;2022-07-06T09:17:59;15.98;;;14.30;;
5876;SDS011;2964;42.144;24.730;2022-07-06T09:20:26;15.68;;;14.20;;
5876;SDS011;2964;42.144;24.730;2022-07-06T09:22:55;15.98;;;13.45;;
5876;SDS011;2964;42.144;24.730;2022-07-06T09:25:24;14.82;;;13.63;;
5876;SDS011;2964;42.144;24.730;2022-07-06T09:27:51;15.80;;;14.60;;
5876;SDS011;2964;42.144;24.730;2022-07-06T09:30:19;14.85;;;13.70;;
5876;SDS011;2964;42.144;24.730;2022-07-06T09:32:48;14.90;;;13.50;;
5876;SDS011;2964;42.144;24.730;2022-07-06T09:35:20;35.45;;;15.13;;
5876;SDS011;2964;42.144;24.730;2022-07-06T09:37:52;14.73;;;13.65;;
5876;SDS011;2964;42.144;24.730;2022-07-06T09:40:26;15.85;;;14.32;;
5876;SDS011;2964;42.144;24.730;2022-07-06T09:43:06;14.90;;;13.75;;
5876;SDS011;2964;42.144;24.730;2022-07-06T09:45:34;16.52;;;13.93;;
5876;SDS011;2964;42.144;24.730;2022-07-06T09:48:05;15.75;;;14.23;;
5876;SDS011;2964;42.144;24.730;2022-07-06T09:50:39;16.10;;;14.70;;
5876;SDS011;2964;42.144;24.730;2022-07-06T09:53:08;16.88;;;15.27;;
5876;SDS011;2964;42.144;24.730;2022-07-06T09:55:35;17.83;;;16.10;;
5876;SDS011;2964;42.144;24.730;2022-07-06T09:58:02;14.20;;;12.68;;
5876;SDS011;2964;42.144;24.730;2022-07-06T10:00:30;14.63;;;13.43;;
5876;SDS011;2964;42.144;24.730;2022-07-06T10:02:56;13.77;;;12.73;;
5876;SDS011;2964;42.144;24.730;2022-07-06T10:05:24;14.13;;;12.77;;
5876;SDS011;2964;42.144;24.730;2022-07-06T10:07:57;12.75;;;11.48;;
5876;SDS011;2964;42.144;24.730;2022-07-06T10:10:25;20.35;;;15.85;;
5876;SDS011;2964;42.144;24.730;2022-07-06T10:12:54;17.83;;;16.08;;
5876;SDS011;2964;42.144;24.730;2022-07-06T10:15:22;12.68;;;11.77;;
5876;SDS011;2964;42.144;24.730;2022-07-06T10:17:50;13.07;;;11.82;;
5876;SDS011;2964;42.144;24.730;2022-07-06T10:20:17;24.90;;;19.05;;
5876;SDS011;2964;42.144;24.730;2022-07-06T10:22:45;20.83;;;18.75;;
5876;SDS011;2964;42.144;24.730;2022-07-06T10:25:14;20.85;;;17.00;;
5876;SDS011;2964;42.144;24.730;2022-07-06T10:27:42;14.60;;;13.20;;
5876;SDS011;2964;42.144;24.730;2022-07-06T10:30:09;15.18;;;13.25;;
5876;SDS011;2964;42.144;24.730;2022-07-06T10:32:37;12.52;;;11.40;;
5876;SDS011;2964;42.144;24.730;2022-07-06T10:35:05;19.05;;;17.23;;
5876;SDS011;2964;42.144;24.730;2022-07-06T10:37:33;12.35;;;10.85;;
5876;SDS011;2964;42.144;24.730;2022-07-06T10:40:00;12.13;;;11.32;;
5876;SDS011;2964;42.144;24.730;2022-07-06T10:42:46;12.90;;;11.68;;
5876;SDS011;2964;42.144;24.730;2022-07-06T10:45:19;12.90;;;11.65;;
5876;SDS011;2964;42.144;24.730;2022-07-06T10:47:47;12.18;;;11.18;;
5876;SDS011;2964;42.144;24.730;2022-07-06T10:50:34;13.15;;;12.15;;
5876;SDS011;2964;42.144;24.730;2022-07-06T10:53:01;13.13;;;12.05;;
5876;SDS011;2964;42.144;24.730;2022-07-06T10:55:30;11.57;;;10.60;;
5876;SDS011;2964;42.144;24.730;2022-07-06T10:58:00;14.60;;;13.13;;
5876;SDS011;2964;42.144;24.730;2022-07-06T11:00:34;12.80;;;11.65;;
5876;SDS011;2964;42.144;24.730;2022-07-06T11:03:29;13.18;;;12.02;;
5876;SDS011;2964;42.144;24.730;2022-07-06T11:05:57;12.85;;;11.60;;
5876;SDS011;2964;42.144;24.730;2022-07-06T11:11:25;11.52;;;10.77;;
5876;SDS011;2964;42.144;24.730;2022-07-06T11:14:05;10.50;;;9.80;;
5876;SDS011;2964;42.144;24.730;2022-07-06T11:16:33;13.80;;;12.55;;
5876;SDS011;2964;42.144;24.730;2022-07-06T11:19:08;10.80;;;8.93;;
5876;SDS011;2964;42.144;24.730;2022-07-06T11:21:45;9.15;;;8.60;;
5876;SDS011;2964;42.144;24.730;2022-07-06T11:24:14;10.98;;;9.93;;
5876;SDS011;2964;42.144;24.730;2022-07-06T11:26:43;11.55;;;10.80;;
5876;SDS011;2964;42.144;24.730;2022-07-06T11:29:13;10.60;;;9.75;;
5876;SDS011;2964;42.144;24.730;2022-07-06T11:31:42;10.93;;;9.80;;
5876;SDS011;2964;42.144;24.730;2022-07-06T11:34:12;11.45;;;10.45;;
5876;SDS011;2964;42.144;24.730;2022-07-06T11:36:40;12.30;;;11.07;;
5876;SDS011;2964;42.144;24.730;2022-07-06T11:39:07;11.48;;;10.82;;
5876;SDS011;2964;42.144;24.730;2022-07-06T11:41:34;9.77;;;9.23;;
5876;SDS011;2964;42.144;24.730;2022-07-06T11:44:03;11.32;;;10.32;;
5876;SDS011;2964;42.144;24.730;2022-07-06T11:46:32;12.60;;;11.38;;
5876;SDS011;2964;42.144;24.730;2022-07-06T11:49:01;9.85;;;9.10;;
5876;SDS011;2964;42.144;24.730;2022-07-06T11:51:30;9.95;;;9.10;;
5876;SDS011;2964;42.144;24.730;2022-07-06T11:53:58;8.43;;;7.85;;
5876;SDS011;2964;42.144;24.730;2022-07-06T11:56:26;9.27;;;8.80;;
5876;SDS011;2964;42.144;24.730;2022-07-06T11:58:54;10.52;;;9.93;;
5876;SDS011;2964;42.144;24.730;2022-07-06T12:01:22;11.65;;;10.70;;
5876;SDS011;2964;42.144;24.730;2022-07-06T12:03:52;10.32;;;9.57;;
5876;SDS011;2964;42.144;24.730;2022-07-06T12:06:19;10.80;;;9.85;;
5876;SDS011;2964;42.144;24.730;2022-07-06T12:08:48;10.20;;;9.20;;
5876;SDS011;2964;42.144;24.730;2022-07-06T12:11:16;13.13;;;11.85;;
5876;SDS011;2964;42.144;24.730;2022-07-06T12:13:45;10.90;;;9.88;;
5876;SDS011;2964;42.144;24.730;2022-07-06T12:16:13;9.70;;;9.10;;
5876;SDS011;2964;42.144;24.730;2022-07-06T12:18:41;11.23;;;10.38;;
5876;SDS011;2964;42.144;24.730;2022-07-06T12:21:12;16.63;;;10.70;;
5876;SDS011;2964;42.144;24.730;2022-07-06T12:23:42;12.07;;;11.07;;
5876;SDS011;2964;42.144;24.730;2022-07-06T12:26:10;11.85;;;10.88;;
5876;SDS011;2964;42.144;24.730;2022-07-06T12:28:37;14.32;;;13.00;;
5876;SDS011;2964;42.144;24.730;2022-07-06T12:31:04;8.98;;;8.40;;
5876;SDS011;2964;42.144;24.730;2022-07-06T12:33:31;10.30;;;9.27;;
5876;SDS011;2964;42.144;24.730;2022-07-06T12:36:08;11.48;;;10.45;;
5876;SDS011;2964;42.144;24.730;2022-07-06T12:38:43;12.80;;;12.05;;
5876;SDS011;2964;42.144;24.730;2022-07-06T12:41:11;9.10;;;8.27;;
5876;SDS011;2964;42.144;24.730;2022-07-06T12:43:59;9.10;;;8.50;;
5876;SDS011;2964;42.144;24.730;2022-07-06T12:46:27;10.63;;;9.82;;
5876;SDS011;2964;42.144;24.730;2022-07-06T12:48:55;10.10;;;9.38;;
5876;SDS011;2964;42.144;24.730;2022-07-06T12:51:24;11.13;;;10.10;;
5876;SDS011;2964;42.144;24.730;2022-07-06T12:53:51;10.68;;;9.70;;
5876;SDS011;2964;42.144;24.730;2022-07-06T12:56:18;11.15;;;9.35;;
5876;SDS011;2964;42.144;24.730;2022-07-06T12:58:58;11.45;;;10.30;;
5876;SDS011;2964;42.144;24.730;2022-07-06T13:01:26;10.43;;;9.65;;
5876;SDS011;2964;42.144;24.730;2022-07-06T13:03:53;10.52;;;9.68;;
5876;SDS011;2964;42.144;24.730;2022-07-06T13:06:32;10.65;;;9.68;;
5876;SDS011;2964;42.144;24.730;2022-07-06T13:09:02;13.35;;;9.75;;
5876;SDS011;2964;42.144;24.730;2022-07-06T13:11:29;12.05;;;10.98;;
5876;SDS011;2964;42.144;24.730;2022-07-06T13:13:56;11.15;;;10.38;;
5876;SDS011;2964;42.144;24.730;2022-07-06T13:16:22;11.68;;;10.73;;
5876;SDS011;2964;42.144;24.730;2022-07-06T13:18:55;12.30;;;11.30;;
5876;SDS011;2964;42.144;24.730;2022-07-06T13:21:22;13.45;;;12.07;;
5876;SDS011;2964;42.144;24.730;2022-07-06T13:23:50;11.95;;;11.18;;
5876;SDS011;2964;42.144;24.730;2022-07-06T13:26:16;13.45;;;12.00;;
5876;SDS011;2964;42.144;24.730;2022-07-06T13:28:43;12.40;;;11.48;;
5876;SDS011;2964;42.144;24.730;2022-07-06T13:31:10;14.68;;;11.85;;
5876;SDS011;2964;42.144;24.730;2022-07-06T13:33:37;12.93;;;11.93;;
5876;SDS011;2964;42.144;24.730;2022-07-06T13:36:04;13.88;;;12.73;;
5876;SDS011;2964;42.144;24.730;2022-07-06T13:38:31;12.40;;;11.35;;
5876;SDS011;2964;42.144;24.730;2022-07-06T13:40:59;13.48;;;12.23;;
5876;SDS011;2964;42.144;24.730;2022-07-06T13:43:26;13.93;;;12.85;;
5876;SDS011;2964;42.144;24.730;2022-07-06T13:46:01;14.23;;;12.65;;
5876;SDS011;2964;42.144;24.730;2022-07-06T13:48:27;13.25;;;12.00;;
5876;SDS011;2964;42.144;24.730;2022-07-06T13:50:54;14.02;;;12.45;;
5876;SDS011;2964;42.144;24.730;2022-07-06T13:53:21;13.60;;;11.95;;
5876;SDS011;2964;42.144;24.730;2022-07-06T13:55:48;14.02;;;12.93;;
5876;SDS011;2964;42.144;24.730;2022-07-06T13:58:16;12.43;;;11.30;;
5876;SDS011;2964;42.144;24.730;2022-07-06T14:00:43;13.48;;;11.73;;
5876;SDS011;2964;42.144;24.730;2022-07-06T14:03:10;12.55;;;11.65;;
5876;SDS011;2964;42.144;24.730;2022-07-06T14:05:36;12.70;;;11.50;;
5876;SDS011;2964;42.144;24.730;2022-07-06T14:08:03;16.02;;;14.52;;
5876;SDS011;2964;42.144;24.730;2022-07-06T14:10:30;14.05;;;12.98;;
5876;SDS011;2964;42.144;24.730;2022-07-06T14:12:57;13.95;;;12.70;;
5876;SDS011;2964;42.144;24.730;2022-07-06T14:15:25;12.80;;;11.15;;
5876;SDS011;2964;42.144;24.730;2022-07-06T14:17:52;15.77;;;14.25;;
5876;SDS011;2964;42.144;24.730;2022-07-06T14:20:19;12.85;;;11.85;;
5876;SDS011;2964;42.144;24.730;2022-07-06T14:22:46;13.48;;;12.10;;
5876;SDS011;2964;42.144;24.730;2022-07-06T14:25:12;14.00;;;12.73;;
5876;SDS011;2964;42.144;24.730;2022-07-06T14:27:39;13.77;;;12.73;;
5876;SDS011;2964;42.144;24.730;2022-07-06T14:30:06;13.57;;;12.50;;
5876;SDS011;2964;42.144;24.730;2022-07-06T14:32:35;16.40;;;12.23;;
5876;SDS011;2964;42.144;24.730;2022-07-06T14:35:02;13.32;;;12.10;;
5876;SDS011;2964;42.144;24.730;2022-07-06T14:37:29;13.75;;;12.75;;
5876;SDS011;2964;42.144;24.730;2022-07-06T14:39:56;13.95;;;12.88;;
5876;SDS011;2964;42.144;24.730;2022-07-06T14:42:22;13.55;;;12.23;;
5876;SDS011;2964;42.144;24.730;2022-07-06T14:44:49;15.80;;;14.55;;
5876;SDS011;2964;42.144;24.730;2022-07-06T14:47:16;17.08;;;13.23;;
5876;SDS011;2964;42.144;24.730;2022-07-06T14:49:44;13.73;;;12.25;;
5876;SDS011;2964;42.144;24.730;2022-07-06T14:52:11;13.27;;;12.05;;